Time,TemperatureF,DewpointF,PressureIn,WindDirection,WindDirectionDegrees,WindSpeedMPH,WindSpeedGustMPH,Humidity,HourlyPrecipIn,Conditions,Clouds,dailyrainin,SoftwareType,DateUTC
2013-04-24 11:43:00,85.5,72.4,29.74,ESE,112,4.3,4.3,65,0.00,,,0.00,VWS V14.01,2013-04-24 01:43:00,
2013-04-24 11:44:00,85.5,72.4,29.74,ESE,112,5.4,5.4,65,0.00,,,0.00,VWS V14.01,2013-04-24 01:44:00,
2013-04-24 11:45:00,84.9,71.8,29.74,SSE,158,2.9,4.3,65,0.00,,,0.00,VWS V14.01,2013-04-24 01:45:00,
2013-04-24 11:46:00,84.9,71.8,29.74,SE,135,2.7,2.9,65,0.00,,,0.00,VWS V14.01,2013-04-24 01:46:00,
2013-04-24 11:47:00,84.9,71.8,29.74,SE,135,2.7,2.9,65,0.00,,,0.00,VWS V14.01,2013-04-24 01:47:00,
2013-04-24 11:48:00,84.9,71.8,29.74,SSE,158,4.3,4.3,65,0.00,,,0.00,VWS V14.01,2013-04-24 01:48:00,
2013-04-24 11:49:00,85.1,72.0,29.74,SSE,158,4.3,4.3,65,0.00,,,0.00,VWS V14.01,2013-04-24 01:49:00,
2013-04-24 11:50:00,85.1,72.0,29.74,NE,45,0.0,4.3,65,0.00,,,0.00,VWS V14.01,2013-04-24 01:50:00,
2013-04-24 11:51:00,85.3,72.2,29.74,SE,135,2.2,2.2,65,0.00,,,0.00,VWS V14.01,2013-04-24 01:51:00,
2013-04-24 11:52:00,85.5,72.4,29.74,East,90,2.0,2.2,65,0.00,,,0.00,VWS V14.01,2013-04-24 01:52:00,
2013-04-24 11:53:00,85.5,72.4,29.74,East,90,2.5,2.5,65,0.00,,,0.00,VWS V14.01,2013-04-24 01:53:00,
2013-04-24 11:54:00,86.0,72.9,29.74,SSE,158,2.2,2.5,65,0.00,,,0.00,VWS V14.01,2013-04-24 01:54:00,
2013-04-24 11:55:00,86.0,72.9,29.74,SW,225,2.0,2.2,65,0.00,,,0.00,VWS V14.01,2013-04-24 01:55:00,
2013-04-24 11:56:00,86.2,72.6,29.74,SW,225,2.0,2.0,64,0.00,,,0.00,VWS V14.01,2013-04-24 01:56:00,
2013-04-24 11:57:00,86.2,72.6,29.74,SW,225,2.0,2.0,64,0.00,,,0.00,VWS V14.01,2013-04-24 01:57:00,
2013-04-24 11:58:00,86.4,72.8,29.74,SE,135,4.0,4.0,64,0.00,,,0.00,VWS V14.01,2013-04-24 01:58:00,
2013-04-24 11:59:00,86.7,73.1,29.74,SE,135,1.1,4.0,64,0.00,,,0.00,VWS V14.01,2013-04-24 01:59:00,
2013-04-24 12:00:00,86.7,73.1,29.74,East,90,1.6,1.6,64,0.00,,,0.00,VWS V14.01,2013-04-24 02:00:00,
2013-04-24 12:01:00,86.7,72.2,29.74,SSE,158,3.1,3.1,62,0.00,,,0.00,VWS V14.01,2013-04-24 02:01:00,
2013-04-24 12:02:00,86.7,72.2,29.74,NE,45,0.9,3.1,62,0.00,,,0.00,VWS V14.01,2013-04-24 02:02:00,
2013-04-24 12:03:00,86.9,72.8,29.74,South,180,1.1,1.1,63,0.00,,,0.00,VWS V14.01,2013-04-24 02:03:00,
2013-04-24 12:04:00,86.9,72.8,29.74,South,180,2.9,2.9,63,0.00,,,0.00,VWS V14.01,2013-04-24 02:04:00,
2013-04-24 12:05:00,86.9,72.3,29.74,SW,225,0.0,2.9,62,0.00,,,0.00,VWS V14.01,2013-04-24 02:05:00,
2013-04-24 12:06:00,86.5,72.0,29.74,SE,135,4.3,4.3,62,0.00,,,0.00,VWS V14.01,2013-04-24 02:06:00,
2013-04-24 12:07:00,86.5,72.0,29.74,East,90,1.3,4.3,62,0.00,,,0.00,VWS V14.01,2013-04-24 02:07:00,
2013-04-24 12:08:00,86.5,72.0,29.74,East,90,4.0,4.0,62,0.00,,,0.00,VWS V14.01,2013-04-24 02:08:00,
2013-04-24 12:09:00,86.5,72.0,29.74,SSW,202,2.2,4.0,62,0.00,,,0.00,VWS V14.01,2013-04-24 02:09:00,
2013-04-24 12:10:00,86.2,71.6,29.74,South,180,2.5,2.5,62,0.00,,,0.00,VWS V14.01,2013-04-24 02:10:00,
2013-04-24 12:11:00,86.2,71.6,29.74,ESE,112,2.5,2.5,62,0.00,,,0.00,VWS V14.01,2013-04-24 02:11:00,
2013-04-24 12:12:00,86.5,72.5,29.74,East,90,3.6,3.6,63,0.00,,,0.00,VWS V14.01,2013-04-24 02:12:00,
2013-04-24 12:13:00,86.5,72.5,29.74,NNE,22,2.9,3.8,63,0.00,,,0.00,VWS V14.01,2013-04-24 02:13:00,
2013-04-24 12:14:00,86.7,72.2,29.74,NNE,22,3.1,3.1,62,0.00,,,0.00,VWS V14.01,2013-04-24 02:14:00,
2013-04-24 12:15:00,87.1,72.5,29.74,NNE,22,4.7,4.7,62,0.00,,,0.00,VWS V14.01,2013-04-24 02:15:00,
2013-04-24 12:16:00,87.1,72.5,29.74,NNE,22,2.9,4.7,62,0.00,,,0.00,VWS V14.01,2013-04-24 02:16:00,
2013-04-24 12:17:00,87.4,72.8,29.74,NNE,22,4.3,4.3,62,0.00,,,0.00,VWS V14.01,2013-04-24 02:17:00,
2013-04-24 12:18:00,87.4,72.8,29.74,NNE,22,2.0,4.3,62,0.00,,,0.00,VWS V14.01,2013-04-24 02:18:00,
2013-04-24 12:19:00,87.4,72.8,29.74,NNE,22,2.0,2.0,62,0.00,,,0.00,VWS V14.01,2013-04-24 02:19:00,
2013-04-24 12:20:00,87.4,72.8,29.74,NE,45,1.6,2.0,62,0.00,,,0.00,VWS V14.01,2013-04-24 02:20:00,
2013-04-24 12:21:00,87.6,73.0,29.74,ENE,68,3.6,3.6,62,0.00,,,0.00,VWS V14.01,2013-04-24 02:21:00,
2013-04-24 12:22:00,87.6,72.5,29.74,East,90,1.1,3.6,61,0.00,,,0.00,VWS V14.01,2013-04-24 02:22:00,
2013-04-24 12:23:00,87.6,72.5,29.74,East,90,3.6,3.6,61,0.00,,,0.00,VWS V14.01,2013-04-24 02:23:00,
2013-04-24 12:24:00,87.6,72.5,29.74,ENE,68,2.9,2.9,61,0.00,,,0.00,VWS V14.01,2013-04-24 02:24:00,
2013-04-24 12:25:00,87.6,72.5,29.74,East,90,1.3,2.9,61,0.00,,,0.00,VWS V14.01,2013-04-24 02:25:00,
2013-04-24 12:26:00,87.8,72.2,29.71,ENE,68,2.9,2.9,60,0.00,,,0.00,VWS V14.01,2013-04-24 02:26:00,
2013-04-24 12:27:00,87.8,72.2,29.71,SE,135,1.3,2.9,60,0.00,,,0.00,VWS V14.01,2013-04-24 02:27:00,
2013-04-24 12:28:00,88.2,73.0,29.71,ESE,112,2.7,2.7,61,0.00,,,0.00,VWS V14.01,2013-04-24 02:28:00,
2013-04-24 12:29:00,88.2,73.0,29.71,ESE,112,2.7,2.7,61,0.00,,,0.00,VWS V14.01,2013-04-24 02:29:00,
2013-04-24 12:30:00,88.0,72.4,29.71,NE,45,1.3,2.7,60,0.00,,,0.00,VWS V14.01,2013-04-24 02:30:00,
2013-04-24 12:31:00,88.2,73.0,29.71,North,360,3.1,3.1,61,0.00,,,0.00,VWS V14.01,2013-04-24 02:31:00,
2013-04-24 12:32:00,88.2,73.0,29.71,ENE,68,2.2,3.1,61,0.00,,,0.00,VWS V14.01,2013-04-24 02:32:00,
2013-04-24 12:33:00,88.5,73.4,29.71,East,90,3.1,3.1,61,0.00,,,0.00,VWS V14.01,2013-04-24 02:33:00,
2013-04-24 12:34:00,88.5,73.4,29.71,ENE,68,3.4,3.4,61,0.00,,,0.00,VWS V14.01,2013-04-24 02:34:00,
2013-04-24 12:35:00,88.5,73.4,29.71,ENE,68,3.4,3.4,61,0.00,,,0.00,VWS V14.01,2013-04-24 02:35:00,
2013-04-24 12:36:00,88.5,73.4,29.71,East,90,1.1,3.4,61,0.00,,,0.00,VWS V14.01,2013-04-24 02:36:00,
2013-04-24 12:37:00,88.5,72.9,29.71,ENE,68,2.7,2.7,60,0.00,,,0.00,VWS V14.01,2013-04-24 02:37:00,
2013-04-24 12:38:00,88.7,73.5,29.71,East,90,3.4,3.4,61,0.00,,,0.00,VWS V14.01,2013-04-24 02:38:00,
2013-04-24 12:39:00,88.7,73.5,29.71,East,90,3.4,3.4,61,0.00,,,0.00,VWS V14.01,2013-04-24 02:39:00,
2013-04-24 12:40:00,88.5,72.4,29.71,ENE,68,3.4,3.4,59,0.00,,,0.00,VWS V14.01,2013-04-24 02:40:00,
2013-04-24 12:41:00,88.5,72.4,29.71,ESE,112,2.5,3.4,59,0.00,,,0.00,VWS V14.01,2013-04-24 02:41:00,
2013-04-24 12:42:00,88.7,73.0,29.71,SSE,158,3.4,3.4,60,0.00,,,0.00,VWS V14.01,2013-04-24 02:42:00,
2013-04-24 12:43:00,88.9,73.2,29.71,South,180,4.0,4.0,60,0.00,,,0.00,VWS V14.01,2013-04-24 02:43:00,
2013-04-24 12:44:00,88.9,73.2,29.71,South,180,4.0,4.0,60,0.00,,,0.00,VWS V14.01,2013-04-24 02:44:00,
2013-04-24 12:45:00,88.5,72.4,29.71,East,90,1.1,4.0,59,0.00,,,0.00,VWS V14.01,2013-04-24 02:45:00,
2013-04-24 12:46:00,88.5,72.4,29.71,East,90,3.6,3.6,59,0.00,,,0.00,VWS V14.01,2013-04-24 02:46:00,
2013-04-24 12:47:00,88.0,71.9,29.71,SE,135,4.0,4.0,59,0.00,,,0.00,VWS V14.01,2013-04-24 02:47:00,
2013-04-24 12:48:00,87.6,72.0,29.71,ENE,68,2.5,6.3,60,0.00,,,0.00,VWS V14.01,2013-04-24 02:48:00,
2013-04-24 12:49:00,87.6,72.0,29.71,ENE,68,2.5,6.3,60,0.00,,,0.00,VWS V14.01,2013-04-24 02:49:00,
2013-04-24 12:50:00,87.6,72.0,29.71,ESE,112,3.6,3.6,60,0.00,,,0.00,VWS V14.01,2013-04-24 02:50:00,
2013-04-24 12:51:00,87.8,71.7,29.71,SE,135,4.9,4.9,59,0.00,,,0.00,VWS V14.01,2013-04-24 02:51:00,
2013-04-24 12:52:00,88.0,72.4,29.71,SE,135,4.3,4.9,60,0.00,,,0.00,VWS V14.01,2013-04-24 02:52:00,
2013-04-24 12:53:00,88.2,72.0,29.71,ESE,112,1.1,3.4,59,0.00,,,0.00,VWS V14.01,2013-04-24 02:53:00,
2013-04-24 12:54:00,88.2,72.0,29.71,SE,135,0.0,3.4,59,0.00,,,0.00,VWS V14.01,2013-04-24 02:54:00,
2013-04-24 12:55:00,88.2,72.0,29.71,SE,135,0.0,0.0,59,0.00,,,0.00,VWS V14.01,2013-04-24 02:55:00,
2013-04-24 12:56:00,88.2,72.0,29.71,South,180,3.6,3.6,59,0.00,,,0.00,VWS V14.01,2013-04-24 02:56:00,
2013-04-24 12:57:00,88.2,72.0,29.71,SSE,158,3.1,3.6,59,0.00,,,0.00,VWS V14.01,2013-04-24 02:57:00,
2013-04-24 12:58:00,87.8,71.7,29.71,ESE,112,3.8,3.8,59,0.00,,,0.00,VWS V14.01,2013-04-24 02:58:00,
2013-04-24 12:59:00,87.8,71.7,29.71,ESE,112,3.8,3.8,59,0.00,,,0.00,VWS V14.01,2013-04-24 02:59:00,
2013-04-24 13:00:00,87.4,71.4,29.71,SE,135,4.3,5.6,59,0.00,,,0.00,VWS V14.01,2013-04-24 03:00:00,
2013-04-24 13:01:00,87.6,71.0,29.71,ESE,112,2.5,4.3,58,0.00,,,0.00,VWS V14.01,2013-04-24 03:01:00,
2013-04-24 13:02:00,87.6,71.0,29.71,North,360,0.9,2.5,58,0.00,,,0.00,VWS V14.01,2013-04-24 03:02:00,
2013-04-24 13:03:00,87.6,71.0,29.71,West,270,0.9,0.9,58,0.00,,,0.00,VWS V14.01,2013-04-24 03:03:00,
2013-04-24 13:04:00,87.6,71.0,29.71,East,90,0.0,0.9,58,0.00,,,0.00,VWS V14.01,2013-04-24 03:04:00,
2013-04-24 13:05:00,87.6,71.0,29.71,ESE,112,0.0,2.0,58,0.00,,,0.00,VWS V14.01,2013-04-24 03:05:00,
2013-04-24 13:06:00,87.6,71.0,29.71,ESE,112,0.0,0.0,58,0.00,,,0.00,VWS V14.01,2013-04-24 03:06:00,
2013-04-24 13:07:00,87.8,71.2,29.71,East,90,3.4,3.4,58,0.00,,,0.00,VWS V14.01,2013-04-24 03:07:00,
2013-04-24 13:08:00,88.2,71.0,29.71,East,90,4.9,4.9,57,0.00,,,0.00,VWS V14.01,2013-04-24 03:08:00,
2013-04-24 13:09:00,88.2,71.0,29.71,SE,135,3.1,4.9,57,0.00,,,0.00,VWS V14.01,2013-04-24 03:09:00,
2013-04-24 13:10:00,88.3,71.2,29.71,ESE,112,3.8,3.8,57,0.00,,,0.00,VWS V14.01,2013-04-24 03:10:00,
2013-04-24 13:11:00,88.3,71.2,29.71,East,90,3.8,3.8,57,0.00,,,0.00,VWS V14.01,2013-04-24 03:11:00,
2013-04-24 13:12:00,88.5,70.8,29.71,ESE,112,4.0,4.0,56,0.00,,,0.00,VWS V14.01,2013-04-24 03:12:00,
2013-04-24 13:13:00,88.5,70.8,29.71,SSE,158,7.6,7.6,56,0.00,,,0.00,VWS V14.01,2013-04-24 03:13:00,
2013-04-24 13:14:00,88.7,70.5,29.71,SSE,158,8.5,8.5,55,0.00,,,0.00,VWS V14.01,2013-04-24 03:14:00,
2013-04-24 13:15:00,88.9,70.6,29.71,South,180,4.7,8.5,55,0.00,,,0.00,VWS V14.01,2013-04-24 03:15:00,
2013-04-24 13:16:00,88.9,70.6,29.71,SSW,202,3.6,4.7,55,0.00,,,0.00,VWS V14.01,2013-04-24 03:16:00,
2013-04-24 13:17:00,89.1,70.8,29.71,ESE,112,3.1,3.6,55,0.00,,,0.00,VWS V14.01,2013-04-24 03:17:00,
2013-04-24 13:18:00,89.1,70.8,29.71,SSE,158,6.0,6.0,55,0.00,,,0.00,VWS V14.01,2013-04-24 03:18:00,
2013-04-24 13:19:00,89.1,70.3,29.71,SSE,158,4.9,6.0,54,0.00,,,0.00,VWS V14.01,2013-04-24 03:19:00,
2013-04-24 13:20:00,89.1,70.3,29.71,SW,225,4.7,4.9,54,0.00,,,0.00,VWS V14.01,2013-04-24 03:20:00,
2013-04-24 13:21:00,89.2,70.4,29.71,SSE,158,2.5,4.7,54,0.00,,,0.00,VWS V14.01,2013-04-24 03:21:00,
2013-04-24 13:22:00,89.2,70.4,29.71,SSE,158,6.0,6.0,54,0.00,,,0.00,VWS V14.01,2013-04-24 03:22:00,